sensor_id;sensor_type;location;lat;lon;timestamp;pressure;altitude;pressure_sealevel;temperature;humidity
63447;BME280;49577;49.872;6.190;2022-09-09T00:00:23;98877.33;;;13.87;85.32
63447;BME280;49577;49.872;6.190;2022-09-09T00:03:12;98872.67;;;13.86;85.25
63447;BME280;49577;49.872;6.190;2022-09-09T00:05:52;98864.17;;;13.81;84.82
63447;BME280;49577;49.872;6.190;2022-09-09T00:08:28;98864.27;;;13.74;85.11
63447;BME280;49577;49.872;6.190;2022-09-09T00:10:59;98873.58;;;13.72;85.19
63447;BME280;49577;49.872;6.190;2022-09-09T00:16:07;98892.60;;;13.68;85.20
63447;BME280;49577;49.872;6.190;2022-09-09T00:18:57;98891.23;;;13.65;85.40
63447;BME280;49577;49.872;6.190;2022-09-09T00:21:49;98888.88;;;13.64;85.51
63447;BME280;49577;49.872;6.190;2022-09-09T00:24:28;98885.43;;;13.65;85.48
63447;BME280;49577;49.872;6.190;2022-09-09T00:27:01;98888.77;;;13.63;85.42
63447;BME280;49577;49.872;6.190;2022-09-09T00:29:41;98889.77;;;13.61;85.36
63447;BME280;49577;49.872;6.190;2022-09-09T00:32:16;98891.84;;;13.62;85.62
63447;BME280;49577;49.872;6.190;2022-09-09T00:37:12;98894.88;;;13.65;85.60
63447;BME280;49577;49.872;6.190;2022-09-09T00:39:44;98893.16;;;13.65;85.60
63447;BME280;49577;49.872;6.190;2022-09-09T00:42:16;98893.77;;;13.66;85.48
63447;BME280;49577;49.872;6.190;2022-09-09T00:50:03;98900.16;;;13.72;85.77
63447;BME280;49577;49.872;6.190;2022-09-09T00:52:50;98897.24;;;13.75;85.73
63447;BME280;49577;49.872;6.190;2022-09-09T00:58:37;98898.98;;;13.73;85.50
63447;BME280;49577;49.872;6.190;2022-09-09T01:01:11;98897.14;;;13.70;85.38
63447;BME280;49577;49.872;6.190;2022-09-09T01:03:49;98896.23;;;13.66;85.58
63447;BME280;49577;49.872;6.190;2022-09-09T01:06:31;98894.41;;;13.63;85.60
63447;BME280;49577;49.872;6.190;2022-09-09T01:11:49;98887.42;;;13.56;85.39
63447;BME280;49577;49.872;6.190;2022-09-09T01:16:51;98896.08;;;13.50;85.52
63447;BME280;49577;49.872;6.190;2022-09-09T01:20:05;98898.04;;;13.47;85.57
63447;BME280;49577;49.872;6.190;2022-09-09T01:22:40;98898.40;;;13.45;85.66
63447;BME280;49577;49.872;6.190;2022-09-09T01:26:04;98898.55;;;13.41;85.50
63447;BME280;49577;49.872;6.190;2022-09-09T01:28:10;98899.64;;;13.38;85.63
63447;BME280;49577;49.872;6.190;2022-09-09T01:30:39;98903.84;;;13.39;85.75
63447;BME280;49577;49.872;6.190;2022-09-09T01:33:12;98902.94;;;13.39;85.87
63447;BME280;49577;49.872;6.190;2022-09-09T01:38:16;98906.16;;;13.40;86.19
63447;BME280;49577;49.872;6.190;2022-09-09T01:40:42;98907.97;;;13.42;86.19
63447;BME280;49577;49.872;6.190;2022-09-09T01:43:08;98907.26;;;13.44;86.24
63447;BME280;49577;49.872;6.190;2022-09-09T01:45:34;98904.86;;;13.46;86.17
63447;BME280;49577;49.872;6.190;2022-09-09T01:48:00;98897.58;;;13.45;86.04
63447;BME280;49577;49.872;6.190;2022-09-09T01:50:26;98901.88;;;13.44;86.10
63447;BME280;49577;49.872;6.190;2022-09-09T01:52:57;98903.65;;;13.43;86.08
63447;BME280;49577;49.872;6.190;2022-09-09T01:55:29;98905.84;;;13.44;86.15
63447;BME280;49577;49.872;6.190;2022-09-09T01:58:12;98904.14;;;13.46;86.14
63447;BME280;49577;49.872;6.190;2022-09-09T02:00:49;98904.31;;;13.46;86.12
63447;BME280;49577;49.872;6.190;2022-09-09T02:03:27;98906.14;;;13.47;86.27
63447;BME280;49577;49.872;6.190;2022-09-09T02:08:42;98904.05;;;13.55;86.23
63447;BME280;49577;49.872;6.190;2022-09-09T02:11:17;98903.08;;;13.56;86.23
63447;BME280;49577;49.872;6.190;2022-09-09T02:13:45;98902.70;;;13.58;86.25
63447;BME280;49577;49.872;6.190;2022-09-09T02:18:48;98902.95;;;13.65;86.38
63447;BME280;49577;49.872;6.190;2022-09-09T02:21:17;98901.23;;;13.69;86.32
63447;BME280;49577;49.872;6.190;2022-09-09T02:23:43;98899.05;;;13.72;86.23
63447;BME280;49577;49.872;6.190;2022-09-09T02:26:12;98899.40;;;13.76;86.08
63447;BME280;49577;49.872;6.190;2022-09-09T02:28:44;98896.82;;;13.79;86.13
63447;BME280;49577;49.872;6.190;2022-09-09T02:31:11;98895.36;;;13.80;85.99
63447;BME280;49577;49.872;6.190;2022-09-09T02:33:42;98895.02;;;13.82;85.99
63447;BME280;49577;49.872;6.190;2022-09-09T02:36:10;98885.66;;;13.84;86.14
63447;BME280;49577;49.872;6.190;2022-09-09T02:38:42;98883.48;;;13.87;86.04
63447;BME280;49577;49.872;6.190;2022-09-09T02:41:10;98880.51;;;13.89;85.87
63447;BME280;49577;49.872;6.190;2022-09-09T02:43:36;98874.44;;;13.90;85.96
63447;BME280;49577;49.872;6.190;2022-09-09T02:46:54;98873.52;;;13.89;85.69
63447;BME280;49577;49.872;6.190;2022-09-09T02:50:04;98878.35;;;13.86;85.78
63447;BME280;49577;49.872;6.190;2022-09-09T02:52:18;98877.75;;;13.85;85.96
63447;BME280;49577;49.872;6.190;2022-09-09T02:54:47;98877.33;;;13.85;86.04
63447;BME280;49577;49.872;6.190;2022-09-09T02:57:22;98876.83;;;13.87;86.22
63447;BME280;49577;49.872;6.190;2022-09-09T02:59:49;98875.34;;;13.90;86.27
63447;BME280;49577;49.872;6.190;2022-09-09T03:02:15;98872.13;;;13.93;86.21
63447;BME280;49577;49.872;6.190;2022-09-09T03:04:40;98869.61;;;13.96;86.25
63447;BME280;49577;49.872;6.190;2022-09-09T03:07:08;98864.67;;;13.98;86.12
63447;BME280;49577;49.872;6.190;2022-09-09T03:09:35;98865.00;;;13.98;86.04
63447;BME280;49577;49.872;6.190;2022-09-09T03:12:00;98869.57;;;14.02;86.48
63447;BME280;49577;49.872;6.190;2022-09-09T03:14:25;98868.07;;;14.07;86.49
63447;BME280;49577;49.872;6.190;2022-09-09T03:16:52;98867.81;;;14.10;86.03
63447;BME280;49577;49.872;6.190;2022-09-09T03:19:17;98868.02;;;14.11;85.94
63447;BME280;49577;49.872;6.190;2022-09-09T03:21:44;98867.72;;;14.11;85.87
63447;BME280;49577;49.872;6.190;2022-09-09T03:24:10;98865.91;;;14.11;85.91
63447;BME280;49577;49.872;6.190;2022-09-09T03:26:35;98861.41;;;14.10;85.86
63447;BME280;49577;49.872;6.190;2022-09-09T03:29:03;98863.00;;;14.11;86.01
63447;BME280;49577;49.872;6.190;2022-09-09T03:31:28;98864.15;;;14.09;86.03
63447;BME280;49577;49.872;6.190;2022-09-09T03:33:56;98863.95;;;14.10;86.07
63447;BME280;49577;49.872;6.190;2022-09-09T03:36:23;98863.58;;;14.10;86.28
63447;BME280;49577;49.872;6.190;2022-09-09T03:38:48;98864.99;;;14.12;86.25
63447;BME280;49577;49.872;6.190;2022-09-09T03:41:14;98866.33;;;14.15;86.25
63447;BME280;49577;49.872;6.190;2022-09-09T03:43:39;98868.69;;;14.16;86.30
63447;BME280;49577;49.872;6.190;2022-09-09T03:46:05;98864.64;;;14.18;86.37
63447;BME280;49577;49.872;6.190;2022-09-09T03:48:30;98865.18;;;14.19;86.26
63447;BME280;49577;49.872;6.190;2022-09-09T03:50:56;98864.30;;;14.20;86.28
63447;BME280;49577;49.872;6.190;2022-09-09T03:53:23;98860.14;;;14.19;86.20
63447;BME280;49577;49.872;6.190;2022-09-09T03:55:51;98863.88;;;14.18;86.27
63447;BME280;49577;49.872;6.190;2022-09-09T03:58:22;98861.89;;;14.19;86.30
63447;BME280;49577;49.872;6.190;2022-09-09T04:00:56;98858.94;;;14.21;86.16
63447;BME280;49577;49.872;6.190;2022-09-09T04:03:23;98854.83;;;14.21;86.14
63447;BME280;49577;49.872;6.190;2022-09-09T04:05:50;98849.20;;;14.22;86.29
63447;BME280;49577;49.872;6.190;2022-09-09T04:08:16;98849.44;;;14.23;86.59
63447;BME280;49577;49.872;6.190;2022-09-09T04:10:41;98853.02;;;14.24;86.66
63447;BME280;49577;49.872;6.190;2022-09-09T04:13:07;98849.17;;;14.26;86.56
63447;BME280;49577;49.872;6.190;2022-09-09T04:15:32;98854.50;;;14.25;86.51
63447;BME280;49577;49.872;6.190;2022-09-09T04:17:59;98851.83;;;14.22;86.38
63447;BME280;49577;49.872;6.190;2022-09-09T04:20:25;98853.14;;;14.21;86.73
63447;BME280;49577;49.872;6.190;2022-09-09T04:22:51;98853.48;;;14.21;86.74
63447;BME280;49577;49.872;6.190;2022-09-09T04:25:16;98853.21;;;14.22;86.68
63447;BME280;49577;49.872;6.190;2022-09-09T04:27:41;98852.36;;;14.22;86.84
63447;BME280;49577;49.872;6.190;2022-09-09T04:30:08;98854.39;;;14.24;87.00
63447;BME280;49577;49.872;6.190;2022-09-09T04:32:34;98861.02;;;14.29;87.02
63447;BME280;49577;49.872;6.190;2022-09-09T04:34:59;98859.94;;;14.33;87.00
63447;BME280;49577;49.872;6.190;2022-09-09T04:37:25;98864.43;;;14.36;86.88
63447;BME280;49577;49.872;6.190;2022-09-09T04:39:50;98866.30;;;14.38;86.84
63447;BME280;49577;49.872;6.190;2022-09-09T04:42:15;98865.39;;;14.43;86.98
63447;BME280;49577;49.872;6.190;2022-09-09T04:44:43;98867.12;;;14.45;86.69
63447;BME280;49577;49.872;6.190;2022-09-09T04:47:09;98869.58;;;14.47;86.25
63447;BME280;49577;49.872;6.190;2022-09-09T04:49:34;98867.27;;;14.50;85.98
63447;BME280;49577;49.872;6.190;2022-09-09T04:52:01;98870.51;;;14.51;85.49
63447;BME280;49577;49.872;6.190;2022-09-09T04:54:26;98866.50;;;14.52;85.15
63447;BME280;49577;49.872;6.190;2022-09-09T04:56:53;98873.36;;;14.54;84.93
63447;BME280;49577;49.872;6.190;2022-09-09T04:59:20;98876.04;;;14.58;84.95
63447;BME280;49577;49.872;6.190;2022-09-09T05:01:45;98876.22;;;14.59;84.70
63447;BME280;49577;49.872;6.190;2022-09-09T05:04:11;98879.53;;;14.61;84.34
63447;BME280;49577;49.872;6.190;2022-09-09T05:06:36;98881.22;;;14.64;84.30
63447;BME280;49577;49.872;6.190;2022-09-09T05:09:02;98887.66;;;14.67;83.93
63447;BME280;49577;49.872;6.190;2022-09-09T05:11:30;98888.97;;;14.70;83.67
63447;BME280;49577;49.872;6.190;2022-09-09T05:13:56;98894.33;;;14.71;83.43
63447;BME280;49577;49.872;6.190;2022-09-09T05:16:22;98891.35;;;14.73;83.74
63447;BME280;49577;49.872;6.190;2022-09-09T05:18:48;98892.52;;;14.74;83.42
63447;BME280;49577;49.872;6.190;2022-09-09T05:21:18;98897.81;;;14.75;83.14
63447;BME280;49577;49.872;6.190;2022-09-09T05:23:45;98895.30;;;14.78;83.14
63447;BME280;49577;49.872;6.190;2022-09-09T05:26:16;98897.66;;;14.80;83.03
63447;BME280;49577;49.872;6.190;2022-09-09T05:28:42;98900.42;;;14.83;82.83
63447;BME280;49577;49.872;6.190;2022-09-09T05:31:09;98896.41;;;14.86;82.62
63447;BME280;49577;49.872;6.190;2022-09-09T05:33:36;98896.96;;;14.90;82.62
63447;BME280;49577;49.872;6.190;2022-09-09T05:36:07;98895.61;;;14.91;82.29
63447;BME280;49577;49.872;6.190;2022-09-09T05:38:33;98899.22;;;14.93;82.00
63447;BME280;49577;49.872;6.190;2022-09-09T05:40:59;98902.89;;;14.94;82.11
63447;BME280;49577;49.872;6.190;2022-09-09T05:43:26;98900.07;;;14.97;81.88
63447;BME280;49577;49.872;6.190;2022-09-09T05:46:00;98896.42;;;14.98;81.91
63447;BME280;49577;49.872;6.190;2022-09-09T05:48:34;98901.62;;;15.01;81.65
63447;BME280;49577;49.872;6.190;2022-09-09T05:51:00;98898.75;;;15.03;81.44
63447;BME280;49577;49.872;6.190;2022-09-09T05:53:26;98901.81;;;15.06;81.44
63447;BME280;49577;49.872;6.190;2022-09-09T05:56:03;98904.13;;;15.08;81.08
63447;BME280;49577;49.872;6.190;2022-09-09T05:58:30;98900.81;;;15.09;80.70
63447;BME280;49577;49.872;6.190;2022-09-09T06:01:06;98898.55;;;15.11;80.44
63447;BME280;49577;49.872;6.190;2022-09-09T06:03:37;98898.51;;;15.13;80.39
63447;BME280;49577;49.872;6.190;2022-09-09T06:06:08;98892.73;;;15.17;80.37
63447;BME280;49577;49.872;6.190;2022-09-09T06:08:35;98896.70;;;15.20;79.93
63447;BME280;49577;49.872;6.190;2022-09-09T06:11:14;98893.88;;;15.23;79.64
63447;BME280;49577;49.872;6.190;2022-09-09T06:13:40;98895.48;;;15.29;79.39
63447;BME280;49577;49.872;6.190;2022-09-09T06:16:12;98891.67;;;15.37;79.22
63447;BME280;49577;49.872;6.190;2022-09-09T06:18:38;98891.17;;;15.50;78.87
63447;BME280;49577;49.872;6.190;2022-09-09T06:21:06;98892.52;;;15.58;78.62
63447;BME280;49577;49.872;6.190;2022-09-09T06:23:33;98899.91;;;15.64;78.41
63447;BME280;49577;49.872;6.190;2022-09-09T06:26:07;98897.19;;;15.71;78.01
63447;BME280;49577;49.872;6.190;2022-09-09T06:28:33;98893.52;;;15.76;77.71
63447;BME280;49577;49.872;6.190;2022-09-09T06:31:07;98889.16;;;15.88;77.49
63447;BME280;49577;49.872;6.190;2022-09-09T06:33:41;98891.02;;;16.43;76.33
63447;BME280;49577;49.872;6.190;2022-09-09T06:36:18;98893.00;;;16.93;74.98
63447;BME280;49577;49.872;6.190;2022-09-09T06:38:44;98890.17;;;17.09;73.89
63447;BME280;49577;49.872;6.190;2022-09-09T06:41:11;98887.73;;;17.04;73.30
63447;BME280;49577;49.872;6.190;2022-09-09T06:43:37;98889.40;;;16.94;73.06
63447;BME280;49577;49.872;6.190;2022-09-09T06:46:14;98890.50;;;16.86;72.57
63447;BME280;49577;49.872;6.190;2022-09-09T06:48:40;98892.29;;;16.77;72.53
63447;BME280;49577;49.872;6.190;2022-09-09T06:51:09;98896.88;;;16.68;72.13
63447;BME280;49577;49.872;6.190;2022-09-09T06:53:37;98898.96;;;16.61;72.08
63447;BME280;49577;49.872;6.190;2022-09-09T06:56:24;98901.77;;;16.60;72.06
63447;BME280;49577;49.872;6.190;2022-09-09T06:58:51;98895.55;;;16.58;71.91
63447;BME280;49577;49.872;6.190;2022-09-09T07:01:22;98895.73;;;16.56;71.61
63447;BME280;49577;49.872;6.190;2022-09-09T07:03:53;98900.64;;;16.57;71.23
63447;BME280;49577;49.872;6.190;2022-09-09T07:06:24;98899.83;;;16.60;71.13
63447;BME280;49577;49.872;6.190;2022-09-09T07:08:51;98904.10;;;16.63;71.20
63447;BME280;49577;49.872;6.190;2022-09-09T07:11:18;98906.38;;;16.66;70.75
63447;BME280;49577;49.872;6.190;2022-09-09T07:13:44;98908.30;;;16.65;70.46
63447;BME280;49577;49.872;6.190;2022-09-09T07:16:11;98909.96;;;16.57;70.04
63447;BME280;49577;49.872;6.190;2022-09-09T07:18:39;98906.99;;;16.48;70.22
63447;BME280;49577;49.872;6.190;2022-09-09T07:21:04;98911.43;;;16.42;70.24
63447;BME280;49577;49.872;6.190;2022-09-09T07:23:31;98909.36;;;16.36;70.41
63447;BME280;49577;49.872;6.190;2022-09-09T07:25:58;98910.59;;;16.31;70.26
63447;BME280;49577;49.872;6.190;2022-09-09T07:28:24;98913.13;;;16.30;70.44
63447;BME280;49577;49.872;6.190;2022-09-09T07:30:59;98913.27;;;16.32;70.28
63447;BME280;49577;49.872;6.190;2022-09-09T07:33:26;98911.02;;;16.33;70.30
63447;BME280;49577;49.872;6.190;2022-09-09T07:35:52;98910.40;;;16.38;70.51
63447;BME280;49577;49.872;6.190;2022-09-09T07:38:19;98908.41;;;16.44;70.38
63447;BME280;49577;49.872;6.190;2022-09-09T07:40:44;98910.50;;;16.48;70.27
63447;BME280;49577;49.872;6.190;2022-09-09T07:43:10;98912.20;;;16.51;69.99
63447;BME280;49577;49.872;6.190;2022-09-09T07:45:36;98911.61;;;16.60;70.17
63447;BME280;49577;49.872;6.190;2022-09-09T07:48:02;98912.13;;;16.82;69.80
63447;BME280;49577;49.872;6.190;2022-09-09T07:50:28;98910.33;;;16.96;69.35
63447;BME280;49577;49.872;6.190;2022-09-09T07:52:53;98908.59;;;16.98;69.17
63447;BME280;49577;49.872;6.190;2022-09-09T07:55:22;98918.29;;;16.98;69.05
63447;BME280;49577;49.872;6.190;2022-09-09T07:57:53;98913.10;;;17.00;68.71
63447;BME280;49577;49.872;6.190;2022-09-09T08:00:19;98917.35;;;17.24;68.57
63447;BME280;49577;49.872;6.190;2022-09-09T08:02:47;98912.10;;;17.45;68.23
63447;BME280;49577;49.872;6.190;2022-09-09T08:05:12;98908.35;;;17.47;67.80
63447;BME280;49577;49.872;6.190;2022-09-09T08:07:38;98915.22;;;17.43;67.70
63447;BME280;49577;49.872;6.190;2022-09-09T08:10:04;98914.34;;;17.40;67.52
63447;BME280;49577;49.872;6.190;2022-09-09T08:12:31;98912.54;;;17.38;67.56
63447;BME280;49577;49.872;6.190;2022-09-09T08:14:57;98913.46;;;17.40;67.75
63447;BME280;49577;49.872;6.190;2022-09-09T08:17:22;98915.39;;;17.40;67.68
63447;BME280;49577;49.872;6.190;2022-09-09T08:19:48;98923.94;;;17.34;67.74
63447;BME280;49577;49.872;6.190;2022-09-09T08:22:13;98925.30;;;17.31;68.15
63447;BME280;49577;49.872;6.190;2022-09-09T08:24:38;98924.89;;;17.33;67.86
63447;BME280;49577;49.872;6.190;2022-09-09T08:27:04;98928.03;;;17.32;67.39
63447;BME280;49577;49.872;6.190;2022-09-09T08:29:29;98928.02;;;17.39;67.32
63447;BME280;49577;49.872;6.190;2022-09-09T08:31:57;98935.67;;;17.43;67.45
63447;BME280;49577;49.872;6.190;2022-09-09T08:34:24;98933.39;;;17.43;67.38
63447;BME280;49577;49.872;6.190;2022-09-09T08:36:53;98943.14;;;17.51;67.07
63447;BME280;49577;49.872;6.190;2022-09-09T08:39:20;98931.35;;;17.69;66.27
63447;BME280;49577;49.872;6.190;2022-09-09T08:42:10;98926.56;;;17.92;65.80
63447;BME280;49577;49.872;6.190;2022-09-09T08:47:58;98920.17;;;18.25;65.08
63447;BME280;49577;49.872;6.190;2022-09-09T08:50:28;98919.58;;;18.34;64.68
63447;BME280;49577;49.872;6.190;2022-09-09T08:53:20;98923.59;;;18.38;63.87
63447;BME280;49577;49.872;6.190;2022-09-09T08:58:17;98931.89;;;18.40;63.27
63447;BME280;49577;49.872;6.190;2022-09-09T09:11:55;98932.28;;;18.40;62.10
63447;BME280;49577;49.872;6.190;2022-09-09T09:14:28;98940.97;;;18.28;62.57
63447;BME280;49577;49.872;6.190;2022-09-09T09:17:00;98941.52;;;18.14;63.02
63447;BME280;49577;49.872;6.190;2022-09-09T09:19:27;98943.91;;;18.00;63.80
63447;BME280;49577;49.872;6.190;2022-09-09T09:29:59;98944.98;;;17.51;66.80
63447;BME280;49577;49.872;6.190;2022-09-09T09:32:28;98950.01;;;17.54;66.89
63447;BME280;49577;49.872;6.190;2022-09-09T09:34:57;98946.05;;;17.62;66.85
63447;BME280;49577;49.872;6.190;2022-09-09T09:37:30;98946.48;;;17.78;66.38
63447;BME280;49577;49.872;6.190;2022-09-09T09:40:07;98949.46;;;18.04;65.59
63447;BME280;49577;49.872;6.190;2022-09-09T09:42:34;98949.63;;;18.36;65.03
63447;BME280;49577;49.872;6.190;2022-09-09T09:45:20;98946.52;;;18.96;63.99
63447;BME280;49577;49.872;6.190;2022-09-09T09:50:24;98946.61;;;19.72;61.89
63447;BME280;49577;49.872;6.190;2022-09-09T09:52:55;98946.48;;;19.83;61.06
63447;BME280;49577;49.872;6.190;2022-09-09T09:55:22;98944.92;;;19.83;60.63
63447;BME280;49577;49.872;6.190;2022-09-09T09:57:49;98947.63;;;19.85;60.79
63447;BME280;49577;49.872;6.190;2022-09-09T10:00:20;98950.02;;;19.91;60.58
63447;BME280;49577;49.872;6.190;2022-09-09T10:02:46;98944.08;;;20.02;60.01
63447;BME280;49577;49.872;6.190;2022-09-09T10:05:16;98944.47;;;20.12;59.73
63447;BME280;49577;49.872;6.190;2022-09-09T10:07:42;98944.79;;;20.28;59.50
63447;BME280;49577;49.872;6.190;2022-09-09T10:10:35;98943.35;;;20.42;58.83
63447;BME280;49577;49.872;6.190;2022-09-09T10:15:48;98936.82;;;21.20;56.89
63447;BME280;49577;49.872;6.190;2022-09-09T10:18:25;98934.60;;;21.97;54.79
63447;BME280;49577;49.872;6.190;2022-09-09T10:21:33;98938.41;;;22.27;53.73
63447;BME280;49577;49.872;6.190;2022-09-09T10:27:05;98934.95;;;22.85;51.47
63447;BME280;49577;49.872;6.190;2022-09-09T10:40:34;98927.66;;;22.35;50.61
63447;BME280;49577;49.872;6.190;2022-09-09T10:43:21;98923.95;;;23.26;49.07
63447;BME280;49577;49.872;6.190;2022-09-09T10:46:02;98919.25;;;24.10;47.90
63447;BME280;49577;49.872;6.190;2022-09-09T10:51:23;98916.25;;;25.14;45.50
63447;BME280;49577;49.872;6.190;2022-09-09T10:57:05;98909.73;;;25.84;43.38
63447;BME280;49577;49.872;6.190;2022-09-09T10:59:40;98901.92;;;26.30;41.92
63447;BME280;49577;49.872;6.190;2022-09-09T11:02:20;98899.21;;;26.08;41.91
63447;BME280;49577;49.872;6.190;2022-09-09T11:05:16;98901.92;;;25.94;42.32
63447;BME280;49577;49.872;6.190;2022-09-09T11:07:49;98898.42;;;25.90;41.51
63447;BME280;49577;49.872;6.190;2022-09-09T11:16:33;98896.88;;;25.02;41.24
63447;BME280;49577;49.872;6.190;2022-09-09T11:21:45;98899.50;;;24.78;42.11
63447;BME280;49577;49.872;6.190;2022-09-09T11:24:22;98897.56;;;24.51;42.36
63447;BME280;49577;49.872;6.190;2022-09-09T11:26:55;98896.77;;;24.24;42.58
63447;BME280;49577;49.872;6.190;2022-09-09T11:34:56;98888.73;;;25.96;39.91
63447;BME280;49577;49.872;6.190;2022-09-09T11:40:26;98879.24;;;26.71;39.26
63447;BME280;49577;49.872;6.190;2022-09-09T11:43:43;98880.25;;;26.17;39.31
63447;BME280;49577;49.872;6.190;2022-09-09T11:46:08;98882.09;;;25.72;39.74
63447;BME280;49577;49.872;6.190;2022-09-09T11:48:35;98873.71;;;25.65;39.62
63447;BME280;49577;49.872;6.190;2022-09-09T11:51:24;98881.07;;;26.13;39.13
63447;BME280;49577;49.872;6.190;2022-09-09T11:56:45;98868.77;;;26.25;38.53
63447;BME280;49577;49.872;6.190;2022-09-09T12:02:09;98868.00;;;26.81;38.33
63447;BME280;49577;49.872;6.190;2022-09-09T12:05:02;98863.73;;;26.74;37.83
63447;BME280;49577;49.872;6.190;2022-09-09T12:07:47;98863.72;;;26.10;38.39
63447;BME280;49577;49.872;6.190;2022-09-09T12:10:29;98866.00;;;25.43;39.29
63447;BME280;49577;49.872;6.190;2022-09-09T12:12:54;98877.77;;;24.66;40.51
63447;BME280;49577;49.872;6.190;2022-09-09T12:15:23;98878.79;;;24.54;40.69
63447;BME280;49577;49.872;6.190;2022-09-09T12:17:57;98879.59;;;24.66;40.82
63447;BME280;49577;49.872;6.190;2022-09-09T12:28:19;98878.93;;;23.80;42.13
63447;BME280;49577;49.872;6.190;2022-09-09T12:33:39;98911.14;;;22.74;44.64
63447;BME280;49577;49.872;6.190;2022-09-09T12:36:12;98914.20;;;22.14;46.18
63447;BME280;49577;49.872;6.190;2022-09-09T12:38:43;98923.95;;;21.64;48.15
63447;BME280;49577;49.872;6.190;2022-09-09T12:41:25;98927.59;;;21.20;50.07
63447;BME280;49577;49.872;6.190;2022-09-09T12:43:51;98930.86;;;20.83;52.10
63447;BME280;49577;49.872;6.190;2022-09-09T12:46:36;98924.80;;;20.54;53.65
63447;BME280;49577;49.872;6.190;2022-09-09T12:49:03;98924.59;;;20.31;54.96
63447;BME280;49577;49.872;6.190;2022-09-09T12:51:30;98918.12;;;20.27;55.84
63447;BME280;49577;49.872;6.190;2022-09-09T12:53:58;98904.70;;;20.37;56.54
63447;BME280;49577;49.872;6.190;2022-09-09T12:56:26;98905.86;;;20.44;56.69
63447;BME280;49577;49.872;6.190;2022-09-09T12:58:53;98911.73;;;20.69;56.92
63447;BME280;49577;49.872;6.190;2022-09-09T13:01:25;98913.09;;;20.78;56.56
63447;BME280;49577;49.872;6.190;2022-09-09T13:03:51;98910.40;;;20.74;56.33
63447;BME280;49577;49.872;6.190;2022-09-09T13:06:37;98913.74;;;20.67;56.51
63447;BME280;49577;49.872;6.190;2022-09-09T13:09:03;98911.79;;;20.58;56.85
63447;BME280;49577;49.872;6.190;2022-09-09T13:11:37;98910.78;;;20.40;57.08
63447;BME280;49577;49.872;6.190;2022-09-09T13:14:05;98920.55;;;20.23;58.18
63447;BME280;49577;49.872;6.190;2022-09-09T13:16:34;98919.05;;;20.20;58.99
63447;BME280;49577;49.872;6.190;2022-09-09T13:19:06;98917.73;;;20.12;59.02
63447;BME280;49577;49.872;6.190;2022-09-09T13:21:37;98917.51;;;19.94;59.51
63447;BME280;49577;49.872;6.190;2022-09-09T13:24:03;98908.80;;;19.79;59.85
63447;BME280;49577;49.872;6.190;2022-09-09T13:26:30;98906.33;;;19.62;59.91
63447;BME280;49577;49.872;6.190;2022-09-09T13:29:25;98907.83;;;19.40;60.30
63447;BME280;49577;49.872;6.190;2022-09-09T13:31:53;98906.70;;;19.28;60.90
63447;BME280;49577;49.872;6.190;2022-09-09T13:34:31;98913.55;;;19.20;61.39
63447;BME280;49577;49.872;6.190;2022-09-09T13:37:06;98913.54;;;19.17;61.83
63447;BME280;49577;49.872;6.190;2022-09-09T13:39:36;98916.00;;;19.12;62.61
63447;BME280;49577;49.872;6.190;2022-09-09T13:42:03;98919.33;;;19.08;62.72
63447;BME280;49577;49.872;6.190;2022-09-09T13:44:31;98918.95;;;19.00;62.60
63447;BME280;49577;49.872;6.190;2022-09-09T13:47:04;98918.30;;;18.85;62.81
63447;BME280;49577;49.872;6.190;2022-09-09T13:49:30;98921.44;;;18.70;63.06
63447;BME280;49577;49.872;6.190;2022-09-09T13:52:09;98913.52;;;18.57;63.04
63447;BME280;49577;49.872;6.190;2022-09-09T13:54:35;98918.05;;;18.39;62.97
63447;BME280;49577;49.872;6.190;2022-09-09T13:57:00;98917.16;;;18.24;63.20
63447;BME280;49577;49.872;6.190;2022-09-09T13:59:26;98920.27;;;18.13;63.61
63447;BME280;49577;49.872;6.190;2022-09-09T14:01:52;98915.83;;;18.03;64.15
63447;BME280;49577;49.872;6.190;2022-09-09T14:04:18;98917.41;;;17.91;64.45
63447;BME280;49577;49.872;6.190;2022-09-09T14:06:47;98916.52;;;17.86;64.84
63447;BME280;49577;49.872;6.190;2022-09-09T14:09:18;98915.00;;;17.80;65.18
63447;BME280;49577;49.872;6.190;2022-09-09T14:11:44;98917.80;;;17.82;65.58
63447;BME280;49577;49.872;6.190;2022-09-09T14:14:10;98911.42;;;17.86;65.55
63447;BME280;49577;49.872;6.190;2022-09-09T14:16:36;98909.67;;;17.81;65.59
63447;BME280;49577;49.872;6.190;2022-09-09T14:19:03;98914.39;;;17.83;65.88
63447;BME280;49577;49.872;6.190;2022-09-09T14:21:28;98905.59;;;17.86;65.69
63447;BME280;49577;49.872;6.190;2022-09-09T14:23:54;98909.05;;;17.95;65.62
63447;BME280;49577;49.872;6.190;2022-09-09T14:26:21;98909.22;;;18.09;65.32
63447;BME280;49577;49.872;6.190;2022-09-09T14:28:47;98907.27;;;18.21;65.28
63447;BME280;49577;49.872;6.190;2022-09-09T14:31:13;98904.35;;;18.36;65.09
63447;BME280;49577;49.872;6.190;2022-09-09T14:33:39;98908.13;;;18.48;64.66
63447;BME280;49577;49.872;6.190;2022-09-09T14:36:04;98904.33;;;18.60;64.49
63447;BME280;49577;49.872;6.190;2022-09-09T14:38:31;98903.73;;;18.77;64.35
63447;BME280;49577;49.872;6.190;2022-09-09T14:40:58;98908.15;;;19.00;64.39
63447;BME280;49577;49.872;6.190;2022-09-09T14:43:24;98908.33;;;19.18;63.61
63447;BME280;49577;49.872;6.190;2022-09-09T14:45:49;98913.77;;;19.22;63.32
63447;BME280;49577;49.872;6.190;2022-09-09T14:48:16;98918.73;;;19.29;63.45
63447;BME280;49577;49.872;6.190;2022-09-09T14:50:42;98915.63;;;19.38;62.88
63447;BME280;49577;49.872;6.190;2022-09-09T14:53:08;98913.98;;;19.65;62.37
63447;BME280;49577;49.872;6.190;2022-09-09T14:55:35;98914.64;;;19.84;61.80
63447;BME280;49577;49.872;6.190;2022-09-09T14:58:00;98913.95;;;19.96;61.20
63447;BME280;49577;49.872;6.190;2022-09-09T15:00:26;98918.12;;;20.02;60.76
63447;BME280;49577;49.872;6.190;2022-09-09T15:02:52;98916.92;;;20.02;60.42
63447;BME280;49577;49.872;6.190;2022-09-09T15:05:18;98914.52;;;19.96;60.54
63447;BME280;49577;49.872;6.190;2022-09-09T15:07:44;98919.96;;;19.88;60.92